| time (UTC) | temp F | wind direction | speed MPH | gust MPH | rain 1hr in | rain 24hr in | rain mn in | humidity % | barometer mb |
| 20260509134550 | 40 | 45 | 2.0 | 7.0 | 0.00 | 0.00 | 0.00 | 88 | 996.0 |
| 20260509133038 | 39 | 58 | 4.0 | 7.0 | 0.00 | 0.00 | 0.00 | 90 | 995.7 |
| 20260509131556 | 41 | 0 | 0.0 | 0.0 | 0.00 | 0.00 | 0.00 | 85 | 996.1 |
| 20260509130050 | 41 | 246 | 0.0 | 2.0 | 0.00 | 0.00 | 0.00 | 82 | 996.4 |
| 20260509124543 | 42 | 0 | 0.0 | 1.0 | 0.00 | 0.00 | 0.00 | 82 | 996.8 |
| 20260509123045 | 42 | 0 | 0.0 | 1.0 | 0.00 | 0.00 | 0.00 | 81 | 996.9 |
| 20260509121543 | 41 | 230 | 0.0 | 2.0 | 0.00 | 0.00 | 0.00 | 82 | 996.6 |
| 20260509120039 | 40 | 205 | 0.0 | 3.0 | 0.00 | 0.00 | 0.00 | 81 | 996.4 |
| 20260509114537 | 41 | 264 | 0.0 | 4.0 | 0.00 | 0.00 | 0.00 | 80 | 996.3 |
| 20260509113036 | 41 | 203 | 1.0 | 4.0 | 0.00 | 0.00 | 0.00 | 79 | 996.2 |
| 20260509111535 | 41 | 202 | 0.0 | 5.0 | 0.00 | 0.00 | 0.00 | 79 | 996.1 |
| 20260509110037 | 40 | 140 | 0.0 | 2.0 | 0.00 | 0.00 | 0.00 | 81 | 996.2 |
| 20260509104549 | 39 | 144 | 0.0 | 1.0 | 0.00 | 0.00 | 0.00 | 81 | 996.6 |
| 20260509103039 | 39 | 0 | 0.0 | 0.0 | 0.00 | 0.00 | 0.00 | 82 | 996.7 |
| 20260509101538 | 38 | 0 | 0.0 | 1.0 | 0.00 | 0.00 | 0.00 | 84 | 996.9 |
| 20260509100039 | 39 | 0 | 0.0 | 1.0 | 0.00 | 0.00 | 0.00 | 83 | 997.2 |
| 20260509094536 | 39 | 0 | 1.0 | 3.0 | 0.00 | 0.00 | 0.00 | 84 | 997.4 |
| 20260509093035 | 38 | 56 | 1.0 | 2.0 | 0.00 | 0.00 | 0.00 | 85 | 997.7 |
| 20260509091538 | 39 | 55 | 0.0 | 2.0 | 0.00 | 0.00 | 0.00 | 84 | 997.9 |
| 20260509090045 | 39 | 50 | 3.0 | 5.0 | 0.00 | 0.00 | 0.00 | 84 | 998.2 |
| 20260509084538 | 40 | 0 | 1.0 | 4.0 | 0.00 | 0.00 | 0.00 | 81 | 998.4 |
| 20260509083043 | 40 | 56 | 0.0 | 3.0 | 0.00 | 0.00 | 0.00 | 79 | 998.3 |
| 20260509081542 | 40 | 135 | 0.0 | 3.0 | 0.00 | 0.00 | 0.00 | 79 | 998.5 |
| 20260509080037 | 39 | 0 | 0.0 | 2.0 | 0.00 | 0.00 | 0.00 | 80 | 998.6 |
| 20260509074536 | 39 | 0 | 0.0 | 4.0 | 0.00 | 0.00 | 0.00 | 81 | 999.1 |
| 20260509073037 | 39 | 101 | 0.0 | 2.0 | 0.00 | 0.00 | 0.00 | 81 | 999.2 |
| 20260509071536 | 39 | 0 | 0.0 | 1.0 | 0.00 | 0.00 | 0.00 | 81 | 999.3 |
| 20260509070035 | 39 | 160 | 0.0 | 2.0 | 0.00 | 0.00 | 0.00 | 81 | 999.9 |
| 20260509064540 | 39 | 97 | 0.0 | 4.0 | 0.00 | 0.00 | 0.00 | 80 | 1000.4 |
| 20260509063036 | 40 | 252 | 0.0 | 2.0 | 0.00 | 0.00 | 0.00 | 77 | 1000.4 |
| 20260509061620 | 40 | 224 | 0.0 | 4.0 | 0.00 | 0.00 | 0.00 | 76 | 1000.6 |
| 20260509060035 | 40 | 0 | 0.0 | 1.0 | 0.00 | 0.00 | 0.00 | 76 | 1000.9 |
| 20260509054542 | 40 | 257 | 1.0 | 4.0 | 0.00 | 0.00 | 0.00 | 77 | 1000.8 |
| 20260509053120 | 41 | 211 | 1.0 | 4.0 | 0.00 | 0.00 | 0.00 | 73 | 1001.3 |
| 20260509051546 | 41 | 217 | 0.0 | 3.0 | 0.00 | 0.00 | 0.00 | 72 | 1001.2 |
| 20260509050045 | 41 | 177 | 1.0 | 4.0 | 0.00 | 0.00 | 0.00 | 71 | 1001.4 |
| 20260509044536 | 40 | 240 | 1.0 | 5.0 | 0.00 | 0.00 | 0.00 | 69 | 1001.5 |
| 20260509043038 | 41 | 228 | 1.0 | 4.0 | 0.00 | 0.00 | 0.00 | 64 | 1001.8 |
| 20260509041540 | 41 | 257 | 0.0 | 3.0 | 0.00 | 0.00 | 0.00 | 62 | 1002.0 |
| 20260509040047 | 40 | 231 | 0.0 | 2.0 | 0.00 | 0.00 | 0.00 | 63 | 1002.3 |
| 20260509034540 | 39 | 198 | 0.0 | 1.0 | 0.00 | 0.00 | 0.00 | 65 | 1002.5 |
| 20260509033036 | 38 | 229 | 0.0 | 1.0 | 0.00 | 0.00 | 0.00 | 66 | 1002.8 |
| 20260509031537 | 38 | 0 | 0.0 | 1.0 | 0.00 | 0.00 | 0.00 | 63 | 1003.0 |
| 20260509030037 | 38 | 0 | 0.0 | 1.0 | 0.00 | 0.00 | 0.00 | 62 | 1003.3 |
| 20260509024543 | 40 | 0 | 0.0 | 0.0 | 0.00 | 0.00 | 0.00 | 55 | 1003.4 |
| 20260509023046 | 40 | 0 | 0.0 | 0.0 | 0.00 | 0.00 | 0.00 | 54 | 1003.6 |
| 20260509021538 | 40 | 0 | 0.0 | 0.0 | 0.00 | 0.00 | 0.00 | 52 | 1003.7 |
| 20260509020044 | 39 | 0 | 0.0 | 0.0 | 0.00 | 0.00 | 0.00 | 61 | 1003.8 |
| 20260509014539 | 39 | 0 | 0.0 | 0.0 | 0.00 | 0.00 | 0.00 | 67 | 1003.8 |
| 20260509013034 | 39 | 0 | 0.0 | 0.0 | 0.00 | 0.00 | 0.00 | 73 | 1003.8 |
| 20260509011539 | 40 | 0 | 0.0 | 0.0 | 0.00 | 0.00 | 0.00 | 66 | 1003.7 |
| 20260509010038 | 41 | 0 | 0.0 | 0.0 | 0.00 | 0.00 | 0.00 | 58 | 1003.8 |
| 20260509004541 | 43 | 0 | 0.0 | 0.0 | 0.00 | 0.00 | 0.00 | 56 | 1003.7 |
| 20260509003054 | 44 | 0 | 0.0 | 0.0 | 0.00 | 0.00 | 0.00 | 50 | 1003.8 |
| 20260509001535 | 45 | 0 | 0.0 | 0.0 | 0.00 | 0.00 | 0.00 | 49 | 1003.7 |
| 20260509000039 | 46 | 0 | 0.0 | 1.0 | 0.00 | 0.00 | 0.00 | 49 | 1003.7 |
| 20260508234541 | 46 | 0 | 0.0 | 0.0 | 0.00 | 0.00 | 0.00 | 44 | 1003.6 |
| 20260508233038 | 48 | 0 | 0.0 | 1.0 | 0.00 | 0.00 | 0.00 | 42 | 1003.8 |
| 20260508231541 | 51 | 213 | 0.0 | 1.0 | 0.00 | 0.00 | 0.00 | 39 | 1003.9 |
| 20260508230036 | 51 | 155 | 0.0 | 2.0 | 0.00 | 0.00 | 0.00 | 36 | 1004.0 |
| 20260508224541 | 51 | 101 | 0.0 | 3.0 | 0.00 | 0.00 | 0.00 | 38 | 1004.1 |
| 20260508223034 | 50 | 202 | 0.0 | 2.0 | 0.00 | 0.00 | 0.00 | 40 | 1004.1 |
| 20260508221541 | 51 | 0 | 0.0 | 2.0 | 0.00 | 0.00 | 0.00 | 35 | 1004.2 |
| 20260508220042 | 52 | 45 | 1.0 | 3.0 | 0.00 | 0.00 | 0.00 | 33 | 1004.2 |
| 20260508214538 | 52 | 105 | 1.0 | 4.0 | 0.00 | 0.00 | 0.00 | 35 | 1004.3 |
| 20260508213041 | 52 | 54 | 1.0 | 5.0 | 0.00 | 0.00 | 0.00 | 36 | 1004.3 |
| 20260508211540 | 50 | 250 | 1.0 | 7.0 | 0.00 | 0.00 | 0.00 | 38 | 1004.3 |
| 20260508210039 | 48 | 47 | 6.0 | 11.0 | 0.00 | 0.00 | 0.00 | 45 | 1004.3 |
| 20260508204538 | 47 | 49 | 7.0 | 10.0 | 0.00 | 0.00 | 0.00 | 48 | 1004.5 |
| 20260508203046 | 48 | 50 | 3.0 | 11.0 | 0.00 | 0.00 | 0.00 | 41 | 1004.6 |
| 20260508201537 | 46 | 51 | 8.0 | 11.0 | 0.00 | 0.00 | 0.00 | 52 | 1004.8 |
| 20260508200036 | 47 | 61 | 8.0 | 11.0 | 0.00 | 0.00 | 0.00 | 49 | 1005.1 |
| 20260508194542 | 46 | 58 | 8.0 | 12.0 | 0.00 | 0.00 | 0.00 | 45 | 1005.5 |
| 20260508193043 | 46 | 48 | 7.0 | 13.0 | 0.00 | 0.00 | 0.00 | 44 | 1005.7 |
| 20260508191541 | 49 | 65 | 2.0 | 10.0 | 0.00 | 0.00 | 0.00 | 46 | 1005.9 |
| 20260508190043 | 48 | 236 | 4.0 | 8.0 | 0.00 | 0.00 | 0.00 | 52 | 1005.9 |
| 20260508184537 | 46 | 295 | 8.0 | 12.0 | 0.00 | 0.00 | 0.00 | 62 | 1005.8 |
| 20260508183046 | 44 | 48 | 7.0 | 12.0 | 0.00 | 0.00 | 0.00 | 70 | 1006.0 |
| 20260508181542 | 43 | 49 | 7.0 | 10.0 | 0.00 | 0.00 | 0.00 | 76 | 1006.0 |
| 20260508180039 | 44 | 37 | 8.0 | 10.0 | 0.00 | 0.00 | 0.00 | 73 | 1006.2 |
| 20260508174556 | 44 | 52 | 7.0 | 10.0 | 0.00 | 0.00 | 0.00 | 73 | 1006.3 |
| 20260508173038 | 42 | 46 | 8.0 | 10.0 | 0.00 | 0.00 | 0.00 | 80 | 1006.4 |
| 20260508171536 | 42 | 48 | 8.0 | 10.0 | 0.00 | 0.00 | 0.00 | 83 | 1006.5 |
| 20260508170037 | 42 | 56 | 8.0 | 10.0 | 0.00 | 0.00 | 0.00 | 83 | 1006.8 |
| 20260508164541 | 42 | 51 | 8.0 | 11.0 | 0.00 | 0.00 | 0.00 | 81 | 1007.0 |
| 20260508163105 | 41 | 15 | 5.0 | 10.0 | 0.00 | 0.00 | 0.00 | 80 | 1007.2 |
| 20260508161538 | 39 | 54 | 6.0 | 9.0 | 0.00 | 0.00 | 0.00 | 90 | 1007.2 |
| 20260508160037 | 39 | 53 | 5.0 | 7.0 | 0.00 | 0.00 | 0.00 | 90 | 1007.2 |
| 20260508154535 | 40 | 44 | 4.0 | 5.0 | 0.00 | 0.00 | 0.00 | 89 | 1007.4 |
| 20260508153040 | 40 | 49 | 4.0 | 6.0 | 0.00 | 0.00 | 0.00 | 88 | 1007.4 |
| 20260508151542 | 42 | 42 | 4.0 | 5.0 | 0.00 | 0.00 | 0.00 | 84 | 1007.5 |
| 20260508150038 | 46 | 359 | 0.0 | 2.0 | 0.00 | 0.00 | 0.00 | 78 | 1007.5 |
| 20260508144539 | 45 | 1 | 0.0 | 1.0 | 0.00 | 0.00 | 0.00 | 78 | 1007.5 |
| 20260508143042 | 45 | 348 | 0.0 | 1.0 | 0.00 | 0.00 | 0.00 | 80 | 1007.6 |
| 20260508141535 | 44 | 327 | 0.0 | 3.0 | 0.00 | 0.00 | 0.00 | 80 | 1007.7 |
| 20260508140041 | 44 | 280 | 0.0 | 2.0 | 0.00 | 0.00 | 0.00 | 80 | 1007.5 |